Airfield :







YOU CAN JOIN US ON...

 
LOGIN :

Register | Disclaimer

   EN    FR    IT 

 









Legend :    VFR   Marginal VFR   IFR   Intensive IFR   Very Intensive IFR
Visi :
Ceiling :
>= 8 km
>= 3000ft
5 to 8 km
1000 to 3000 ft
1500m to 5 km
500 to 1000 ft
800 to 1500m
200 to 500 ft
< 800m
< 200 ft
Symbols :   Thunderstorms  Fog  Heavy snow  Heavy precipitations  Wind > 20 kt






- Airport Elevation : 792 ft
- IATA code : YSC


CYSC - Sherbrooke

CURRENT METAR :
  • 310718Z AUTO 30018G24KT 9SM SCT009 BKN013 BKN042 BKN050 06/04 A2990 RMK SLP131

EXPIRED METARs :
  • 310701Z AUTO 30017G22KT 9SM OVC009 06/05 A2990 RMK SLP129
  • 310652Z AUTO 29015G24KT 9SM OVC007 06/06 A2989 RMK PRESRR SLP128
  • 310635Z AUTO 28015G23KT 3SM -RA BR OVC007 07/07 A2988 RMK SLP123
  • 310628Z AUTO 28015KT 3SM -RA BR BKN007 OVC013 07/07 A2988 RMK SLP121
  • 310617Z AUTO 30013G18KT 5SM BR BKN009 OVC013 08/07 A2987 RMK SLP120
  • 310606Z AUTO 29012KT 9SM BKN011 OVC022 08/07 A2987 RMK SLP118
  • 310555Z AUTO 30011G18KT 8SM BKN011 OVC016 08/07 A2986 RMK SLP118
  • 310506Z AUTO 31008KT 9SM -RA BKN015 OVC025 09/08 A2984 RMK SLP110
  • 310455Z AUTO 31013KT 9SM SCT015 OVC025 10/08 A2984 RMK SLP111
  • 310447Z AUTO 30005KT 9SM FEW013 SCT019 OVC025 10/09 A2984 RMK SLP110

Expired Forecast.
CZUL FIR / North America



MET'MAP, your aeronautical weather chart ! - Copyright ORBIFLY December 2007 - Disclaimer

ORBIFLY MET'MAP TEAM :

Programming & Development : Alexandra Zaïnal
Concept & original design : Baudouin d'Aumeries
Assistance for programming : Marc-Olivier Méhu
Technical & hardware support : Manuel Goepfert

Contact : metmap@orbifly.com




SOURCES & CREDITS :

   NOAA